Time;durP1;ratioP1;P1;durP2;ratioP2;P2;SDS_P1;SDS_P2;PMS_P1;PMS_P2;Temp;Humidity;BMP_temperature;BMP_pressure;BME280_temperature;BME280_humidity;BME280_pressure;Samples;Min_cycle;Max_cycle;Signal;HPM_P1;HPM_P2
2022/04/10 00:00:30;;;;;;;11.13;4.60;;;;;;;1.24;83.36;101760.03;5098402;28;20087;-70
2022/04/10 00:02:56;;;;;;;14.07;4.90;;;;;;;1.27;82.64;101769.84;5089471;28;20028;-69
2022/04/10 00:05:21;;;;;;;7.40;4.35;;;;;;;1.26;83.43;101771.63;5090788;28;20081;-68
2022/04/10 00:07:46;;;;;;;13.60;4.78;;;;;;;1.23;83.57;101760.97;5093494;28;20016;-69
2022/04/10 00:10:12;;;;;;;10.40;4.88;;;;;;;1.21;83.87;101759.22;5097871;28;20039;-69
2022/04/10 00:12:37;;;;;;;13.88;5.25;;;;;;;1.21;83.52;101770.84;5092463;28;20036;-69
2022/04/10 00:15:04;;;;;;;14.73;5.35;;;;;;;1.22;83.44;101769.03;5102021;28;20044;-69
2022/04/10 00:17:29;;;;;;;12.23;4.13;;;;;;;1.21;83.83;101775.28;5104917;28;20027;-70
2022/04/10 00:19:54;;;;;;;6.85;4.30;;;;;;;1.21;83.44;101772.59;5099802;28;20024;-72
2022/04/10 00:22:20;;;;;;;13.05;4.75;;;;;;;1.21;83.13;101765.47;5102312;28;20128;-69
2022/04/10 00:24:45;;;;;;;11.60;4.97;;;;;;;1.20;83.66;101766.38;5097777;27;20073;-70
2022/04/10 00:27:13;;;;;;;10.57;5.05;;;;;;;1.14;83.63;101758.44;5118806;27;20035;-69
2022/04/10 00:29:40;;;;;;;14.98;5.28;;;;;;;1.15;83.46;101762.91;5098325;27;20541;-71
2022/04/10 00:32:05;;;;;;;8.65;4.75;;;;;;;1.14;83.67;101768.28;5088595;28;20032;-70
2022/04/10 00:34:31;;;;;;;7.63;4.50;;;;;;;1.12;83.28;101768.34;5098047;28;20071;-70
2022/04/10 00:36:56;;;;;;;6.40;4.35;;;;;;;1.12;83.21;101768.34;5102261;28;20089;-72
2022/04/10 00:39:22;;;;;;;10.50;4.60;;;;;;;1.07;83.83;101756.78;5074633;28;20487;-70
2022/04/10 00:41:49;;;;;;;10.32;4.97;;;;;;;1.08;83.92;101758.56;5090500;28;20511;-69
2022/04/10 00:44:15;;;;;;;14.52;4.95;;;;;;;1.09;84.11;101756.78;5104244;28;20012;-72
2022/04/10 00:46:41;;;;;;;8.35;4.40;;;;;;;1.08;83.84;101749.66;5101855;28;20106;-71
2022/04/10 00:49:07;;;;;;;9.75;4.90;;;;;;;1.07;83.70;101750.53;5110536;28;20038;-69
2022/04/10 00:51:40;;;;;;;8.15;4.32;;;;;;;1.08;83.77;101755.03;5110346;28;20032;-71
2022/04/10 00:54:09;;;;;;;9.98;4.95;;;;;;;1.04;84.14;101750.63;5091717;28;20042;-71
2022/04/10 00:56:35;;;;;;;8.30;5.03;;;;;;;1.00;83.58;101753.34;5103440;28;20027;-72
2022/04/10 00:59:02;;;;;;;10.18;5.00;;;;;;;0.99;83.81;101746.22;5109088;28;20054;-69
2022/04/10 01:01:28;;;;;;;12.95;5.32;;;;;;;1.01;84.13;101755.13;5107734;28;20020;-71
2022/04/10 01:03:53;;;;;;;11.07;4.70;;;;;;;1.03;84.27;101749.75;5095870;28;20059;-69
2022/04/10 01:06:19;;;;;;;9.98;4.45;;;;;;;1.04;84.55;101759.53;5097009;28;20024;-70
2022/04/10 01:08:44;;;;;;;12.70;5.05;;;;;;;0.94;84.09;101737.41;5097586;28;20035;-69
2022/04/10 01:11:11;;;;;;;8.20;4.85;;;;;;;0.97;84.38;101753.41;5090461;28;20032;-71
2022/04/10 01:13:37;;;;;;;12.13;5.05;;;;;;;0.91;84.10;101749.97;5109132;28;20031;-71
2022/04/10 01:16:03;;;;;;;13.65;4.43;;;;;;;0.89;84.98;101747.31;5107726;28;20031;-69
2022/04/10 01:18:28;;;;;;;12.77;5.32;;;;;;;0.89;84.79;101754.47;5105496;28;20575;-71
2022/04/10 01:20:54;;;;;;;9.90;5.53;;;;;;;0.89;84.36;101746.44;5108894;28;20550;-71
2022/04/10 01:23:21;;;;;;;7.38;5.13;;;;;;;0.90;84.80;101750.88;5105934;28;20110;-69
2022/04/10 01:25:47;;;;;;;13.05;5.10;;;;;;;0.87;85.29;101745.56;5104697;28;20031;-72
2022/04/10 01:28:14;;;;;;;17.15;6.00;;;;;;;0.89;85.21;101746.44;5104926;28;20043;-70
2022/04/10 01:30:43;;;;;;;12.85;5.60;;;;;;;0.89;85.26;101760.72;5107323;28;20364;-69
2022/04/10 01:33:08;;;;;;;8.80;5.75;;;;;;;0.90;84.94;101753.56;5094557;28;20032;-72
2022/04/10 01:35:37;;;;;;;19.10;8.38;;;;;;;0.91;84.79;101755.31;5108833;28;20026;-70
2022/04/10 01:38:04;;;;;;;10.98;6.25;;;;;;;0.94;85.50;101761.50;5082445;28;20024;-71
2022/04/10 01:40:36;;;;;;;10.07;5.80;;;;;;;0.99;85.17;101759.63;5106909;28;20028;-69
2022/04/10 01:43:02;;;;;;;12.93;5.80;;;;;;;1.00;84.79;101761.38;5091947;28;20077;-69
2022/04/10 01:45:28;;;;;;;16.85;5.85;;;;;;;0.99;84.38;101759.63;5107362;28;20080;-69
2022/04/10 01:47:53;;;;;;;10.63;5.82;;;;;;;0.99;84.97;101764.09;5091663;28;20040;-71
2022/04/10 01:50:22;;;;;;;10.15;5.72;;;;;;;0.98;84.79;101760.53;5107065;28;20035;-71
2022/04/10 01:52:47;;;;;;;10.05;5.97;;;;;;;0.98;84.83;101760.53;5105845;28;20479;-72
2022/04/10 01:55:12;;;;;;;11.73;6.07;;;;;;;0.99;84.85;101766.78;5104716;28;20088;-70
2022/04/10 01:57:39;;;;;;;16.27;6.15;;;;;;;0.96;85.09;101770.38;5094131;28;20127;-69
2022/04/10 02:00:06;;;;;;;16.67;6.47;;;;;;;0.95;85.32;101771.31;5100015;28;20081;-69
2022/04/10 02:02:38;;;;;;;10.77;6.65;;;;;;;0.96;85.83;101772.19;5099352;28;20063;-69
2022/04/10 02:05:04;;;;;;;12.57;7.20;;;;;;;0.96;86.16;101775.75;5108528;28;20065;-72
2022/04/10 02:07:29;;;;;;;17.70;6.97;;;;;;;0.97;85.94;101779.31;5095836;28;20474;-71
2022/04/10 02:09:55;;;;;;;17.17;8.40;;;;;;;0.98;85.77;101791.81;5105676;28;20038;-70
2022/04/10 02:12:21;;;;;;;13.50;7.10;;;;;;;0.96;85.40;101785.59;5104460;28;20481;-70
2022/04/10 02:14:46;;;;;;;11.98;6.50;;;;;;;0.90;85.29;101769.63;5108020;28;20074;-69
2022/04/10 02:17:12;;;;;;;15.82;6.65;;;;;;;0.97;86.03;101780.19;5094902;28;20028;-69
2022/04/10 02:19:38;;;;;;;15.50;7.70;;;;;;;0.98;86.39;101778.41;5112557;28;20050;-69
2022/04/10 02:22:03;;;;;;;10.43;6.40;;;;;;;0.98;85.55;101781.09;5111529;28;20601;-69
2022/04/10 02:24:29;;;;;;;12.93;8.65;;;;;;;0.97;85.94;101777.50;5108738;28;20038;-72
2022/04/10 02:26:54;;;;;;;14.55;8.15;;;;;;;0.94;85.46;101777.59;5109602;28;20020;-71
2022/04/10 02:29:20;;;;;;;12.18;6.93;;;;;;;0.89;85.25;101774.09;5095425;28;20054;-72
2022/04/10 02:31:45;;;;;;;12.95;7.50;;;;;;;0.89;86.03;101783.94;5112154;28;20475;-71
2022/04/10 02:34:11;;;;;;;17.23;8.05;;;;;;;0.85;85.69;101776.88;5113296;28;20460;-70
2022/04/10 02:36:36;;;;;;;14.90;7.38;;;;;;;0.83;85.37;101776.00;5107207;28;20622;-69
2022/04/10 02:39:01;;;;;;;13.80;7.80;;;;;;;0.83;85.71;101782.22;5094702;28;20055;-70
2022/04/10 02:41:27;;;;;;;10.88;7.53;;;;;;;0.78;85.20;101778.75;5097182;28;20513;-71
2022/04/10 02:43:54;;;;;;;11.15;6.53;;;;;;;0.72;84.15;101786.88;5107108;28;20043;-71
2022/04/10 02:46:20;;;;;;;14.45;7.32;;;;;;;0.67;84.71;101786.09;5101505;28;20390;-72
2022/04/10 02:48:45;;;;;;;14.32;7.30;;;;;;;0.60;84.75;101787.06;5104963;28;20494;-69
2022/04/10 02:51:15;;;;;;;11.88;7.13;;;;;;;0.52;84.35;101794.38;5111764;28;20398;-69
2022/04/10 02:53:40;;;;;;;13.38;6.55;;;;;;;0.44;84.26;101797.16;5106787;28;20020;-72
2022/04/10 02:56:06;;;;;;;10.85;6.05;;;;;;;0.37;84.58;101792.78;5110067;28;20394;-72
2022/04/10 02:58:31;;;;;;;11.98;6.00;;;;;;;0.33;84.83;101800.00;5111385;28;20054;-70
2022/04/10 03:00:56;;;;;;;13.32;7.68;;;;;;;0.36;84.86;101797.25;5109260;28;20039;-72
2022/04/10 03:03:22;;;;;;;12.50;6.75;;;;;;;0.34;84.71;101801.78;5101870;28;20028;-69
2022/04/10 03:05:47;;;;;;;10.75;6.25;;;;;;;0.30;84.47;101799.16;5106929;28;20023;-69
2022/04/10 03:08:13;;;;;;;8.85;6.25;;;;;;;0.25;84.00;101805.47;5093095;28;20037;-70
2022/04/10 03:10:38;;;;;;;11.82;6.60;;;;;;;0.22;84.63;101801.94;5106783;28;20024;-69
2022/04/10 03:13:05;;;;;;;11.30;6.93;;;;;;;0.21;84.62;101810.88;5106287;28;20059;-71
2022/04/10 03:15:30;;;;;;;8.57;6.55;;;;;;;0.15;84.66;101800.28;5106856;28;20031;-72
2022/04/10 03:17:56;;;;;;;13.15;6.88;;;;;;;0.11;84.47;101803.88;5111344;28;20424;-70
2022/04/10 03:20:21;;;;;;;11.73;7.03;;;;;;;0.09;84.84;101809.25;5110793;28;20024;-71
2022/04/10 03:22:47;;;;;;;9.73;6.38;;;;;;;0.04;84.88;101803.06;5089304;28;20065;-68
2022/04/10 03:25:13;;;;;;;10.65;6.72;;;;;;;0.04;84.49;101800.41;5103523;28;20656;-69
2022/04/10 03:27:38;;;;;;;9.95;6.75;;;;;;;-0.02;84.72;101801.38;5111095;28;20047;-71
2022/04/10 03:30:04;;;;;;;11.18;6.93;;;;;;;-0.01;84.82;101807.59;5107394;28;20031;-71
2022/04/10 03:32:30;;;;;;;10.80;7.63;;;;;;;-0.09;85.04;101804.16;5110757;28;20494;-71
2022/04/10 03:34:55;;;;;;;13.93;6.70;;;;;;;-0.12;85.03;101809.53;5110733;28;20035;-68
2022/04/10 03:37:22;;;;;;;9.07;6.43;;;;;;;-0.14;84.68;101820.28;5105921;28;20395;-71
2022/04/10 03:39:48;;;;;;;10.98;7.13;;;;;;;-0.16;85.72;101816.72;5096709;28;20031;-71
2022/04/10 03:42:14;;;;;;;10.60;7.00;;;;;;;-0.17;85.44;101816.75;5109669;28;20027;-69
2022/04/10 03:44:39;;;;;;;13.63;7.45;;;;;;;-0.14;85.63;101819.34;5106672;28;20429;-70
2022/04/10 03:47:06;;;;;;;12.88;7.18;;;;;;;-0.17;85.92;101809.59;5093301;28;20032;-68
2022/04/10 03:49:32;;;;;;;15.23;7.68;;;;;;;-0.19;85.76;101818.53;5110614;28;20034;-68
2022/04/10 03:51:57;;;;;;;11.23;6.63;;;;;;;-0.19;85.82;101823.88;5107948;28;20031;-69
2022/04/10 03:54:23;;;;;;;14.60;7.53;;;;;;;-0.18;86.04;101825.69;5096626;28;20534;-68
2022/04/10 03:56:48;;;;;;;14.18;7.05;;;;;;;-0.20;86.01;101825.69;5107168;28;20495;-71
2022/04/10 03:59:14;;;;;;;10.82;6.80;;;;;;;-0.22;86.21;101832.84;5109206;28;20407;-71
2022/04/10 04:01:39;;;;;;;10.88;7.00;;;;;;;-0.22;86.13;101826.63;5101023;28;20032;-71
2022/04/10 04:04:05;;;;;;;12.55;7.50;;;;;;;-0.24;85.96;101826.59;5110174;28;20498;-70
2022/04/10 04:06:30;;;;;;;9.77;7.05;;;;;;;-0.24;85.54;101829.28;5093290;28;20061;-69
2022/04/10 04:08:56;;;;;;;14.07;7.82;;;;;;;-0.26;85.42;101836.47;5100840;28;20027;-71
2022/04/10 04:11:22;;;;;;;10.43;7.35;;;;;;;-0.29;85.47;101840.03;5108595;28;20040;-70
2022/04/10 04:13:47;;;;;;;12.60;6.93;;;;;;;-0.32;85.75;101840.09;5110663;28;20102;-69
2022/04/10 04:16:13;;;;;;;13.25;7.47;;;;;;;-0.30;86.09;101837.38;5108358;28;20027;-69
2022/04/10 04:18:39;;;;;;;9.98;6.75;;;;;;;-0.31;85.81;101838.28;5110089;28;20376;-70
2022/04/10 04:21:06;;;;;;;12.48;7.38;;;;;;;-0.32;85.80;101842.75;5108352;28;20036;-72
2022/04/10 04:23:34;;;;;;;11.82;6.82;;;;;;;-0.35;85.15;101836.56;5101310;28;20086;-69
2022/04/10 04:26:00;;;;;;;9.50;7.13;;;;;;;-0.37;85.59;101846.41;5103697;28;20031;-72
2022/04/10 04:28:25;;;;;;;12.50;7.38;;;;;;;-0.38;86.30;101840.13;5109901;28;20031;-72
2022/04/10 04:30:51;;;;;;;11.88;7.32;;;;;;;-0.41;85.74;101836.63;5095510;28;20127;-69
2022/04/10 04:33:18;;;;;;;13.43;8.25;;;;;;;-0.41;86.83;101839.31;5093265;28;20023;-70
2022/04/10 04:35:43;;;;;;;11.13;7.60;;;;;;;-0.42;86.16;101842.88;5092411;28;20035;-72
2022/04/10 04:38:09;;;;;;;12.55;7.95;;;;;;;-0.46;86.84;101844.72;5103868;28;20112;-73
2022/04/10 04:40:36;;;;;;;16.85;7.68;;;;;;;-0.47;86.40;101842.91;5093379;28;20030;-72
2022/04/10 04:43:01;;;;;;;18.85;8.23;;;;;;;-0.47;87.07;101847.38;5077303;28;20056;-70
2022/04/10 04:45:29;;;;;;;12.73;7.32;;;;;;;-0.47;86.60;101844.69;5099776;28;20040;-72
2022/04/10 04:48:00;;;;;;;13.38;6.88;;;;;;;-0.47;86.42;101850.06;5109498;28;20031;-72
2022/04/10 04:50:26;;;;;;;13.27;7.75;;;;;;;-0.48;86.93;101849.16;5107005;28;20399;-67
2022/04/10 04:52:53;;;;;;;9.70;6.97;;;;;;;-0.49;87.12;101852.75;5104178;28;20020;-69
2022/04/10 04:55:19;;;;;;;13.20;7.82;;;;;;;-0.48;86.60;101849.16;5100641;28;20036;-71
2022/04/10 04:57:44;;;;;;;10.35;7.00;;;;;;;-0.45;86.24;101848.25;5109460;28;20051;-73
2022/04/10 05:00:11;;;;;;;17.88;7.57;;;;;;;-0.44;87.06;101850.91;5104702;28;20039;-68
2022/04/10 05:02:41;;;;;;;16.00;7.53;;;;;;;-0.44;86.33;101852.69;5092272;28;20032;-74
2022/04/10 05:05:07;;;;;;;10.95;6.93;;;;;;;-0.43;86.21;101851.78;5109229;28;20092;-70
2022/04/10 05:07:33;;;;;;;12.38;7.30;;;;;;;-0.37;85.92;101857.09;5097527;28;20028;-71
2022/04/10 05:09:58;;;;;;;12.27;6.47;;;;;;;-0.33;85.63;101857.03;5091494;27;20406;-71
2022/04/10 05:12:24;;;;;;;12.60;6.70;;;;;;;-0.26;85.64;101864.06;5104120;28;20506;-73
2022/04/10 05:14:50;;;;;;;16.42;7.43;;;;;;;-0.23;85.67;101864.94;5104788;28;20028;-68
2022/04/10 05:17:17;;;;;;;14.80;8.13;;;;;;;-0.16;85.39;101872.00;5092785;28;20031;-72
2022/04/10 05:19:46;;;;;;;12.90;7.25;;;;;;;-0.10;85.74;101872.78;5108921;28;20031;-72
2022/04/10 05:22:12;;;;;;;17.60;7.95;;;;;;;-0.02;86.16;101878.06;5105072;28;20020;-73
2022/04/10 05:24:44;;;;;;;13.63;8.23;;;;;;;0.04;86.22;101877.09;5107745;28;20376;-68
2022/04/10 05:27:10;;;;;;;13.25;7.13;;;;;;;0.07;85.36;101880.63;5102259;28;20038;-70
2022/04/10 05:29:36;;;;;;;15.30;7.57;;;;;;;0.11;85.72;101879.69;5103604;28;20084;-71
2022/04/10 05:32:03;;;;;;;14.43;7.80;;;;;;;0.15;84.78;101884.09;5108568;28;20028;-72
2022/04/10 05:34:28;;;;;;;15.32;7.32;;;;;;;0.18;85.22;101884.03;5104201;28;20467;-72
2022/04/10 05:36:54;;;;;;;14.55;7.85;;;;;;;0.26;85.11;101891.97;5109120;28;20032;-72
2022/04/10 05:39:19;;;;;;;17.27;7.28;;;;;;;0.32;84.80;101891.88;5071235;28;20032;-72
2022/04/10 05:41:45;;;;;;;11.68;7.05;;;;;;;0.41;84.42;101897.09;5097613;28;20120;-73
2022/04/10 05:44:14;;;;;;;11.32;7.20;;;;;;;0.48;84.38;101893.47;5096028;28;20560;-73
2022/04/10 05:46:39;;;;;;;13.40;7.15;;;;;;;0.56;84.96;101900.47;5090568;28;20027;-69
2022/04/10 05:49:07;;;;;;;12.52;7.45;;;;;;;0.74;85.75;101897.53;5112871;28;20049;-68
2022/04/10 05:51:33;;;;;;;10.38;6.97;;;;;;;0.97;85.29;101894.50;5112697;28;20036;-69
2022/04/10 05:53:59;;;;;;;15.38;7.05;;;;;;;1.33;83.59;101914.47;5106095;28;20024;-71
2022/04/10 05:56:26;;;;;;;12.70;7.30;;;;;;;1.53;83.28;101914.09;5103427;28;20114;-73
2022/04/10 05:58:52;;;;;;;11.27;7.22;;;;;;;1.70;82.54;101911.13;5112606;28;20071;-73
2022/04/10 06:01:18;;;;;;;12.75;7.75;;;;;;;1.75;82.24;101918.16;5111402;28;20134;-71
2022/04/10 06:03:45;;;;;;;9.88;6.53;;;;;;;1.70;82.60;101920.06;5112926;28;20038;-71
2022/04/10 06:06:12;;;;;;;12.95;6.57;;;;;;;1.67;83.01;101930.81;5108788;28;20024;-72
2022/04/10 06:08:43;;;;;;;11.55;6.22;;;;;;;1.76;83.43;101924.41;5100956;28;20036;-73
2022/04/10 06:11:08;;;;;;;7.72;5.80;;;;;;;1.91;82.50;101932.19;5100924;28;20024;-72
2022/04/10 06:13:36;;;;;;;11.70;5.93;;;;;;;1.98;83.47;101931.16;5103463;28;20482;-69
2022/04/10 06:16:06;;;;;;;10.30;6.38;;;;;;;2.16;83.33;101932.59;5101431;28;20038;-69
2022/04/10 06:18:32;;;;;;;13.35;6.68;;;;;;;2.47;82.33;101942.66;5112348;28;20035;-70
2022/04/10 06:21:01;;;;;;;14.10;6.40;;;;;;;2.49;82.31;101943.53;5110745;28;20028;-68
2022/04/10 06:23:27;;;;;;;13.93;6.45;;;;;;;2.44;82.50;101938.28;5105452;28;20510;-73
2022/04/10 06:25:59;;;;;;;10.10;5.80;;;;;;;2.51;82.05;101949.75;5103930;28;20035;-73
2022/04/10 06:28:25;;;;;;;9.93;5.80;;;;;;;2.69;82.73;101945.78;5112031;28;20119;-70
2022/04/10 06:30:50;;;;;;;9.38;6.03;;;;;;;3.06;82.46;101952.09;5098488;28;20082;-73
2022/04/10 06:33:21;;;;;;;11.10;6.22;;;;;;;3.84;80.55;101958.19;5095678;28;20032;-71
2022/04/10 06:35:49;;;;;;;10.38;5.63;;;;;;;4.71;77.66;101954.84;5111975;28;20522;-71
2022/04/10 06:38:15;;;;;;;11.20;5.22;;;;;;;5.71;75.38;101959.72;5099750;28;20047;-69
2022/04/10 06:40:47;;;;;;;8.73;4.57;;;;;;;6.55;72.04;101959.41;5100789;28;20026;-71
2022/04/10 06:43:12;;;;;;;9.30;4.47;;;;;;;6.72;70.70;101958.78;5098813;28;20032;-69
2022/04/10 06:46:03;;;;;;;8.73;4.65;;;;;;;6.52;70.88;101963.09;5064966;28;20049;-69
2022/04/10 06:48:38;;;;;;;7.38;4.63;;;;;;;6.35;71.27;101969.16;5111434;28;20547;-72
2022/04/10 06:51:04;;;;;;;15.55;5.05;;;;;;;6.69;70.83;101964.28;5112895;28;20043;-68
2022/04/10 06:53:29;;;;;;;9.13;4.93;;;;;;;7.01;69.88;101963.91;5104651;28;20081;-68
2022/04/10 06:55:55;;;;;;;7.78;4.05;;;;;;;7.26;69.05;101969.22;5109913;28;20027;-73
2022/04/10 06:58:22;;;;;;;8.10;4.60;;;;;;;7.12;69.10;101974.31;5094461;28;20074;-69
2022/04/10 07:00:49;;;;;;;6.97;4.60;;;;;;;6.96;70.03;101973.16;5102390;28;20402;-68
2022/04/10 07:03:15;;;;;;;9.13;4.80;;;;;;;7.05;69.84;101973.69;5105939;28;20019;-70
2022/04/10 07:05:41;;;;;;;9.95;4.50;;;;;;;7.43;68.50;101973.94;5106692;28;20037;-73
2022/04/10 07:08:13;;;;;;;10.15;5.32;;;;;;;7.81;67.91;101979.59;5095380;28;20024;-69
2022/04/10 07:10:39;;;;;;;8.30;4.25;;;;;;;8.24;66.47;101983.13;5102458;28;20020;-70
2022/04/10 07:13:05;;;;;;;8.23;3.83;;;;;;;8.52;63.94;101978.25;5111279;28;20112;-70
2022/04/10 07:15:31;;;;;;;12.32;4.13;;;;;;;8.53;63.81;101980.00;5089459;28;20031;-69
2022/04/10 07:17:58;;;;;;;11.38;3.90;;;;;;;8.36;64.25;101978.06;5110413;28;20414;-69
2022/04/10 07:20:25;;;;;;;6.30;3.70;;;;;;;8.12;65.14;101982.72;5108781;28;20039;-69
2022/04/10 07:25:35;;;;;;;8.50;3.60;;;;;;;8.25;66.41;101984.88;5097397;28;20040;-71
2022/04/10 07:28:01;;;;;;;8.60;3.60;;;;;;;8.20;66.06;101982.38;5108705;28;20027;-70
2022/04/10 07:30:34;;;;;;;11.05;4.40;;;;;;;8.12;65.47;101984.56;5099612;28;20039;-70
2022/04/10 07:33:07;;;;;;;12.50;3.97;;;;;;;8.26;66.59;101989.38;5108480;28;20114;-69
2022/04/10 07:35:37;;;;;;;6.60;3.47;;;;;;;8.53;65.72;101985.44;5106751;28;20035;-72
2022/04/10 07:38:10;;;;;;;10.52;3.60;;;;;;;8.95;64.07;101984.38;5090368;28;20047;-69
2022/04/10 07:40:38;;;;;;;8.95;3.60;;;;;;;9.40;63.62;101996.72;5101407;28;20429;-68
2022/04/10 07:43:05;;;;;;;6.97;3.15;;;;;;;9.88;61.51;102006.94;5077551;28;20069;-70
2022/04/10 07:48:32;;;;;;;9.32;3.30;;;;;;;10.44;60.42;102007.69;5096142;28;20462;-70
2022/04/10 07:50:58;;;;;;;7.07;3.13;;;;;;;10.18;60.39;102015.38;5097575;28;20123;-70
2022/04/10 07:53:34;;;;;;;8.93;2.95;;;;;;;9.99;61.29;102010.97;5097603;28;20032;-73
2022/04/10 07:56:00;;;;;;;5.07;2.67;;;;;;;9.93;59.46;102012.16;5100909;28;20028;-69
2022/04/10 07:58:26;;;;;;;9.32;2.50;;;;;;;10.08;61.34;102022.25;5096264;28;20040;-68
2022/04/10 08:00:52;;;;;;;4.95;2.20;;;;;;;10.10;60.38;102019.44;5086544;27;20035;-70
2022/04/10 08:03:18;;;;;;;4.30;2.38;;;;;;;10.08;59.00;102016.81;5089140;28;20034;-69
2022/04/10 08:05:46;;;;;;;6.43;2.55;;;;;;;9.79;60.81;102026.47;5090925;28;20510;-67
2022/04/10 08:08:16;;;;;;;7.55;2.63;;;;;;;10.13;61.25;102022.91;5094296;28;20051;-72
2022/04/10 08:10:41;;;;;;;6.00;2.95;;;;;;;10.51;60.77;102035.47;5090812;28;20099;-70
2022/04/10 08:13:06;;;;;;;6.53;2.67;;;;;;;10.32;58.51;102022.84;5097763;28;20023;-68
2022/04/10 08:15:32;;;;;;;7.30;2.53;;;;;;;10.52;58.93;102037.22;5092937;28;20040;-69
2022/04/10 08:17:57;;;;;;;5.95;2.30;;;;;;;10.80;58.60;102034.78;5092206;28;20403;-70
2022/04/10 08:20:23;;;;;;;6.65;2.13;;;;;;;11.03;57.39;102041.69;5094840;28;20024;-68
2022/04/10 08:22:50;;;;;;;5.28;2.00;;;;;;;10.87;57.31;102051.69;5095202;28;20034;-72
2022/04/10 08:25:16;;;;;;;8.57;2.38;;;;;;;10.70;58.18;102047.13;5101939;28;20038;-67
2022/04/10 08:27:42;;;;;;;6.18;2.15;;;;;;;10.37;57.61;102047.97;5099718;28;20036;-69
2022/04/10 08:30:09;;;;;;;3.28;1.75;;;;;;;10.04;56.05;102042.41;5107402;28;20501;-72
2022/04/10 08:32:42;;;;;;;2.72;1.90;;;;;;;9.74;55.64;102043.94;5109637;28;20047;-70
2022/04/10 08:35:09;;;;;;;5.38;1.92;;;;;;;9.47;55.21;102051.63;5097854;28;20090;-69
2022/04/10 08:37:35;;;;;;;18.85;2.95;;;;;;;8.97;58.63;102063.91;5093787;28;20147;-71
2022/04/10 08:40:01;;;;;;;9.65;2.88;;;;;;;8.36;60.42;102072.97;5096310;28;20173;-71
2022/04/10 08:42:26;;;;;;;4.25;2.30;;;;;;;7.97;62.61;102067.38;5088101;28;20107;-70
2022/04/10 08:44:55;;;;;;;8.65;3.00;;;;;;;7.67;63.53;102064.13;5091188;28;20119;-73
2022/04/10 08:47:21;;;;;;;14.50;3.00;;;;;;;7.49;64.40;102064.88;5108099;28;20390;-72
2022/04/10 08:49:50;;;;;;;5.53;2.60;;;;;;;7.45;65.02;102065.94;5108796;28;20027;-71
2022/04/10 08:52:17;;;;;;;6.65;2.33;;;;;;;7.73;65.11;102071.13;5100120;28;20028;-71
2022/04/10 08:54:44;;;;;;;8.43;2.83;;;;;;;8.14;65.10;102077.53;5099127;28;20024;-73
2022/04/10 08:57:09;;;;;;;4.25;2.50;;;;;;;8.27;63.22;102070.63;5107197;28;20510;-70
2022/04/10 08:59:34;;;;;;;11.07;3.13;;;;;;;8.53;62.20;102069.50;5102435;28;20051;-70
2022/04/10 09:02:00;;;;;;;6.60;2.40;;;;;;;8.96;63.04;102072.16;5089625;28;20031;-68
2022/04/10 09:04:25;;;;;;;7.28;2.90;;;;;;;9.45;61.96;102067.97;5099536;28;20029;-69
2022/04/10 09:07:05;;;;;;;6.88;2.60;;;;;;;9.69;58.86;102069.50;5100373;28;20168;-68
2022/04/10 09:09:31;;;;;;;6.13;2.15;;;;;;;9.91;59.10;102063.00;5092649;28;20024;-68
2022/04/10 09:11:58;;;;;;;4.93;2.10;;;;;;;10.13;57.28;102077.28;5107421;28;20085;-70
2022/04/10 09:14:28;;;;;;;2.90;1.83;;;;;;;10.41;56.94;102073.19;5101210;28;20064;-70
2022/04/10 09:17:09;;;;;;;9.30;2.10;;;;;;;10.65;59.93;102074.59;5099522;28;20047;-71
2022/04/10 09:19:36;;;;;;;3.10;1.60;;;;;;;10.89;57.52;102074.25;5098741;28;20028;-68
2022/04/10 09:22:28;;;;;;;5.53;2.25;;;;;;;11.46;58.00;102066.53;5098228;28;20539;-72
2022/04/10 09:25:14;;;;;;;6.75;1.98;;;;;;;12.05;57.77;102056.78;5100017;28;20082;-68
2022/04/10 09:27:41;;;;;;;4.53;1.65;;;;;;;12.45;52.51;102073.47;5101869;28;20555;-68
2022/04/10 09:30:12;;;;;;;5.25;2.53;;;;;;;12.55;53.87;102079.28;5107225;28;20088;-71
2022/04/10 09:32:48;;;;;;;5.55;1.90;;;;;;;12.91;54.63;102076.97;5108423;28;20039;-68
2022/04/10 09:35:22;;;;;;;5.57;2.10;;;;;;;13.00;53.39;102068.22;5099932;28;20048;-68
2022/04/10 09:37:48;;;;;;;4.70;1.63;;;;;;;12.92;46.62;102064.22;5082966;28;20462;-71
2022/04/10 09:40:43;;;;;;;4.22;1.60;;;;;;;12.61;51.06;102060.66;5088928;28;20107;-72
2022/04/10 09:43:10;;;;;;;3.50;1.38;;;;;;;12.21;48.62;102070.38;5079616;28;20051;-72
2022/04/10 09:45:38;;;;;;;5.72;1.77;;;;;;;11.83;49.68;102073.50;5088360;28;20471;-67
2022/04/10 09:48:18;;;;;;;5.55;2.10;;;;;;;11.82;52.77;102069.03;5095058;28;20062;-72
2022/04/10 09:50:44;;;;;;;4.50;1.70;;;;;;;11.53;48.72;102073.41;5104599;27;20481;-70
2022/04/10 09:53:11;;;;;;;4.10;1.45;;;;;;;11.34;51.28;102084.47;5087252;28;20197;-69
2022/04/10 09:55:38;;;;;;;4.40;1.80;;;;;;;11.55;53.21;102068.75;5088705;28;20040;-68
2022/04/10 09:58:10;;;;;;;3.35;1.73;;;;;;;11.97;51.75;102064.53;5087920;28;20052;-68
2022/04/10 10:00:41;;;;;;;3.40;1.70;;;;;;;12.49;49.59;102067.72;5088823;28;20517;-68
2022/04/10 10:03:08;;;;;;;4.13;1.60;;;;;;;12.96;48.41;102058.47;5087905;28;20031;-71
2022/04/10 10:05:34;;;;;;;4.65;1.83;;;;;;;13.03;48.31;102064.41;5089449;28;20024;-68
2022/04/10 10:08:00;;;;;;;6.25;1.50;;;;;;;12.93;44.23;102064.13;5088176;28;20028;-72
2022/04/10 10:10:29;;;;;;;3.40;1.38;;;;;;;12.76;43.77;102072.47;5087478;28;20538;-73
2022/04/10 10:12:56;;;;;;;5.13;2.25;;;;;;;12.63;47.85;102066.00;5096472;28;20036;-68
2022/04/10 10:15:22;;;;;;;7.57;1.60;;;;;;;12.52;42.90;102075.75;5093830;28;20631;-67
2022/04/10 10:17:48;;;;;;;4.22;1.85;;;;;;;12.59;46.90;102064.44;5095383;28;20022;-71
2022/04/10 10:20:14;;;;;;;6.47;2.00;;;;;;;12.70;44.78;102064.69;5090181;28;20399;-67
2022/04/10 10:22:40;;;;;;;7.85;1.65;;;;;;;12.69;47.01;102052.88;5088470;28;20031;-72
2022/04/10 10:25:12;;;;;;;3.53;1.33;;;;;;;12.95;47.95;102055.81;5088668;28;20479;-70
2022/04/10 10:27:59;;;;;;;8.65;2.10;;;;;;;13.13;44.97;102056.50;5094253;28;20507;-68
2022/04/10 10:31:00;;;;;;;3.33;1.83;;;;;;;13.26;48.61;102055.66;5087813;28;20043;-69
2022/04/10 10:33:27;;;;;;;4.70;1.77;;;;;;;13.58;50.24;102051.81;5090527;28;20039;-70
2022/04/10 10:35:57;;;;;;;7.57;2.28;;;;;;;13.94;47.71;102046.63;5093244;28;20028;-70
2022/04/10 10:38:27;;;;;;;2.17;1.55;;;;;;;14.13;42.55;102046.25;5091698;28;20035;-72
2022/04/10 10:41:08;;;;;;;4.00;1.70;;;;;;;13.81;42.97;102040.22;5092391;28;20067;-73
2022/04/10 10:43:33;;;;;;;4.60;1.40;;;;;;;13.83;41.12;102051.06;5094471;28;20032;-72
2022/04/10 10:45:58;;;;;;;7.15;1.60;;;;;;;13.27;40.85;102045.59;5106126;28;20036;-68
2022/04/10 10:48:38;;;;;;;5.70;1.63;;;;;;;12.72;43.19;102051.78;5112963;28;20564;-72
2022/04/10 10:51:10;;;;;;;2.78;1.75;;;;;;;12.56;45.76;102054.59;5089532;28;20032;-72
2022/04/10 10:53:57;;;;;;;5.13;1.95;;;;;;;12.62;47.19;102051.50;5090254;28;20031;-68
2022/04/10 10:56:33;;;;;;;2.97;1.67;;;;;;;12.31;44.89;102057.06;5100928;28;20039;-72
2022/04/10 10:59:30;;;;;;;3.90;1.75;;;;;;;11.94;45.90;102057.44;5103096;28;20044;-71
2022/04/10 11:02:04;;;;;;;5.93;1.73;;;;;;;11.80;47.64;102060.06;5094609;28;20054;-68
2022/04/10 11:04:40;;;;;;;3.80;1.67;;;;;;;12.25;50.15;102055.59;5098264;28;20059;-71
2022/04/10 11:07:20;;;;;;;3.55;1.73;;;;;;;12.86;48.55;102049.09;5092210;28;20031;-70
2022/04/10 11:09:49;;;;;;;5.18;1.60;;;;;;;13.34;45.60;102043.38;5094447;28;20487;-68
2022/04/10 11:12:15;;;;;;;6.05;1.60;;;;;;;13.65;38.63;102047.69;5091133;28;20036;-72
2022/04/10 11:14:42;;;;;;;4.68;1.63;;;;;;;13.27;39.58;102048.34;5091355;28;20042;-72
2022/04/10 11:17:09;;;;;;;2.95;1.17;;;;;;;13.44;45.30;102044.53;5099004;28;20040;-70
2022/04/10 11:19:36;;;;;;;3.75;1.38;;;;;;;13.81;44.88;102053.91;5096308;28;20522;-70
2022/04/10 11:22:02;;;;;;;6.25;1.70;;;;;;;14.06;37.64;102046.78;5094257;28;20051;-68
2022/04/10 11:24:28;;;;;;;3.50;1.60;;;;;;;14.19;44.52;102044.97;5092371;28;20040;-68
2022/04/10 11:26:54;;;;;;;4.53;1.45;;;;;;;14.10;41.70;102041.00;5094931;28;20480;-72
2022/04/10 11:29:24;;;;;;;9.88;2.33;;;;;;;14.47;44.03;102038.47;5091825;28;20047;-69
2022/04/10 11:31:53;;;;;;;4.88;1.67;;;;;;;14.89;40.14;102036.44;5089306;28;20054;-69
2022/04/10 11:34:22;;;;;;;4.20;1.42;;;;;;;15.15;38.90;102038.16;5090606;28;20036;-72